sensor_id;sensor_type;location;lat;lon;timestamp;temperature;humidity
42877;DHT22;42341;40.498;72.818;2023-03-03T00:00:52;8.20;93.30
42877;DHT22;42341;40.498;72.818;2023-03-03T00:03:21;8.10;93.30
42877;DHT22;42341;40.498;72.818;2023-03-03T00:05:47;8.10;93.20
42877;DHT22;42341;40.498;72.818;2023-03-03T00:08:14;7.80;93.30
42877;DHT22;42341;40.498;72.818;2023-03-03T00:10:40;7.50;93.50
42877;DHT22;42341;40.498;72.818;2023-03-03T00:13:16;7.40;93.70
42877;DHT22;42341;40.498;72.818;2023-03-03T00:15:43;7.30;93.70
42877;DHT22;42341;40.498;72.818;2023-03-03T00:18:36;7.40;93.80
42877;DHT22;42341;40.498;72.818;2023-03-03T00:21:18;7.40;93.80
42877;DHT22;42341;40.498;72.818;2023-03-03T00:23:47;7.40;93.70
42877;DHT22;42341;40.498;72.818;2023-03-03T00:26:34;7.50;93.60
42877;DHT22;42341;40.498;72.818;2023-03-03T00:29:01;7.50;93.60
42877;DHT22;42341;40.498;72.818;2023-03-03T00:31:43;7.50;93.60
42877;DHT22;42341;40.498;72.818;2023-03-03T00:36:48;7.50;93.60
42877;DHT22;42341;40.498;72.818;2023-03-03T00:39:34;7.60;93.40
42877;DHT22;42341;40.498;72.818;2023-03-03T00:42:01;7.60;93.50
42877;DHT22;42341;40.498;72.818;2023-03-03T00:44:47;7.60;93.50
42877;DHT22;42341;40.498;72.818;2023-03-03T00:47:37;7.60;93.40
42877;DHT22;42341;40.498;72.818;2023-03-03T00:52:37;7.30;93.70
42877;DHT22;42341;40.498;72.818;2023-03-03T00:55:04;7.30;93.90
42877;DHT22;42341;40.498;72.818;2023-03-03T00:57:30;7.20;93.90
42877;DHT22;42341;40.498;72.818;2023-03-03T00:59:56;7.30;93.90
42877;DHT22;42341;40.498;72.818;2023-03-03T01:02:22;7.40;93.60
42877;DHT22;42341;40.498;72.818;2023-03-03T01:04:51;7.50;93.40
42877;DHT22;42341;40.498;72.818;2023-03-03T01:07:17;7.50;93.20
42877;DHT22;42341;40.498;72.818;2023-03-03T01:09:44;7.30;92.90
42877;DHT22;42341;40.498;72.818;2023-03-03T01:12:11;7.40;92.90
42877;DHT22;42341;40.498;72.818;2023-03-03T01:14:37;7.40;92.80
42877;DHT22;42341;40.498;72.818;2023-03-03T01:17:04;7.50;92.70
42877;DHT22;42341;40.498;72.818;2023-03-03T01:19:30;7.50;92.50
42877;DHT22;42341;40.498;72.818;2023-03-03T01:21:56;7.40;92.60
42877;DHT22;42341;40.498;72.818;2023-03-03T01:24:22;7.40;92.50
42877;DHT22;42341;40.498;72.818;2023-03-03T01:26:48;7.40;92.40
42877;DHT22;42341;40.498;72.818;2023-03-03T01:29:14;7.40;92.30
42877;DHT22;42341;40.498;72.818;2023-03-03T01:31:40;7.30;92.10
42877;DHT22;42341;40.498;72.818;2023-03-03T01:34:06;7.30;91.90
42877;DHT22;42341;40.498;72.818;2023-03-03T01:36:32;7.20;92.00
42877;DHT22;42341;40.498;72.818;2023-03-03T01:38:59;7.00;92.00
42877;DHT22;42341;40.498;72.818;2023-03-03T01:41:29;7.10;92.10
42877;DHT22;42341;40.498;72.818;2023-03-03T01:43:58;7.10;91.90
42877;DHT22;42341;40.498;72.818;2023-03-03T01:49:09;7.10;92.00
42877;DHT22;42341;40.498;72.818;2023-03-03T01:51:57;7.10;91.80
42877;DHT22;42341;40.498;72.818;2023-03-03T01:54:42;7.00;91.70
42877;DHT22;42341;40.498;72.818;2023-03-03T01:57:22;7.00;91.60
42877;DHT22;42341;40.498;72.818;2023-03-03T01:59:51;7.10;91.50
42877;DHT22;42341;40.498;72.818;2023-03-03T02:02:18;7.10;91.50
42877;DHT22;42341;40.498;72.818;2023-03-03T02:04:44;6.90;91.60
42877;DHT22;42341;40.498;72.818;2023-03-03T02:07:11;6.50;92.10
42877;DHT22;42341;40.498;72.818;2023-03-03T02:09:58;6.20;92.50
42877;DHT22;42341;40.498;72.818;2023-03-03T02:12:35;5.80;93.30
42877;DHT22;42341;40.498;72.818;2023-03-03T02:15:15;5.70;93.80
42877;DHT22;42341;40.498;72.818;2023-03-03T02:17:41;6.00;93.10
42877;DHT22;42341;40.498;72.818;2023-03-03T02:20:24;6.30;92.90
42877;DHT22;42341;40.498;72.818;2023-03-03T02:23:00;6.10;93.00
42877;DHT22;42341;40.498;72.818;2023-03-03T02:28:29;6.50;92.30
42877;DHT22;42341;40.498;72.818;2023-03-03T02:30:56;6.40;91.80
42877;DHT22;42341;40.498;72.818;2023-03-03T02:33:23;6.10;92.70
42877;DHT22;42341;40.498;72.818;2023-03-03T02:35:51;6.20;92.90
42877;DHT22;42341;40.498;72.818;2023-03-03T02:38:43;6.50;92.60
42877;DHT22;42341;40.498;72.818;2023-03-03T02:41:29;6.80;92.10
42877;DHT22;42341;40.498;72.818;2023-03-03T02:44:07;7.00;91.80
42877;DHT22;42341;40.498;72.818;2023-03-03T02:46:35;7.10;91.30
42877;DHT22;42341;40.498;72.818;2023-03-03T02:49:02;7.30;91.20
42877;DHT22;42341;40.498;72.818;2023-03-03T02:51:29;7.20;91.60
42877;DHT22;42341;40.498;72.818;2023-03-03T02:53:55;7.00;91.50
42877;DHT22;42341;40.498;72.818;2023-03-03T02:56:21;7.30;91.40
42877;DHT22;42341;40.498;72.818;2023-03-03T02:58:47;7.20;91.60
42877;DHT22;42341;40.498;72.818;2023-03-03T03:01:13;7.40;91.60
42877;DHT22;42341;40.498;72.818;2023-03-03T03:03:41;7.70;91.10
42877;DHT22;42341;40.498;72.818;2023-03-03T03:06:07;7.90;90.50
42877;DHT22;42341;40.498;72.818;2023-03-03T03:08:33;7.90;90.60
42877;DHT22;42341;40.498;72.818;2023-03-03T03:10:59;8.00;90.30
42877;DHT22;42341;40.498;72.818;2023-03-03T03:13:25;8.10;90.00
42877;DHT22;42341;40.498;72.818;2023-03-03T03:15:52;8.40;89.70
42877;DHT22;42341;40.498;72.818;2023-03-03T03:18:18;9.00;89.20
42877;DHT22;42341;40.498;72.818;2023-03-03T03:20:44;9.30;87.30
42877;DHT22;42341;40.498;72.818;2023-03-03T03:23:11;9.80;85.90
42877;DHT22;42341;40.498;72.818;2023-03-03T03:25:37;10.10;84.20
42877;DHT22;42341;40.498;72.818;2023-03-03T03:28:11;10.20;83.40
42877;DHT22;42341;40.498;72.818;2023-03-03T03:30:37;10.00;83.50
42877;DHT22;42341;40.498;72.818;2023-03-03T03:33:04;10.10;83.50
42877;DHT22;42341;40.498;72.818;2023-03-03T03:35:31;10.30;82.00
42877;DHT22;42341;40.498;72.818;2023-03-03T03:37:57;10.60;80.80
42877;DHT22;42341;40.498;72.818;2023-03-03T04:17:26;15.80;63.20
42877;DHT22;42341;40.498;72.818;2023-03-03T04:19:52;15.70;61.40
42877;DHT22;42341;40.498;72.818;2023-03-03T04:22:18;16.30;61.20
42877;DHT22;42341;40.498;72.818;2023-03-03T04:24:44;16.70;59.10
42877;DHT22;42341;40.498;72.818;2023-03-03T04:27:13;17.70;58.20
42877;DHT22;42341;40.498;72.818;2023-03-03T04:29:40;17.50;56.20
42877;DHT22;42341;40.498;72.818;2023-03-03T04:32:06;17.70;54.60
42877;DHT22;42341;40.498;72.818;2023-03-03T04:34:32;18.10;52.80
42877;DHT22;42341;40.498;72.818;2023-03-03T04:36:59;18.80;52.90
42877;DHT22;42341;40.498;72.818;2023-03-03T04:39:25;18.80;52.40
42877;DHT22;42341;40.498;72.818;2023-03-03T04:41:52;18.60;53.40
42877;DHT22;42341;40.498;72.818;2023-03-03T04:44:18;19.80;54.00
42877;DHT22;42341;40.498;72.818;2023-03-03T04:46:43;20.40;50.20
42877;DHT22;42341;40.498;72.818;2023-03-03T04:49:10;20.60;49.60
42877;DHT22;42341;40.498;72.818;2023-03-03T04:51:36;20.70;48.40
42877;DHT22;42341;40.498;72.818;2023-03-03T04:54:02;21.20;47.70
42877;DHT22;42341;40.498;72.818;2023-03-03T04:56:30;21.40;46.80
42877;DHT22;42341;40.498;72.818;2023-03-03T04:58:56;21.90;46.00
42877;DHT22;42341;40.498;72.818;2023-03-03T05:01:23;21.40;45.30
42877;DHT22;42341;40.498;72.818;2023-03-03T05:03:48;21.70;44.90
42877;DHT22;42341;40.498;72.818;2023-03-03T05:06:14;21.80;44.60
42877;DHT22;42341;40.498;72.818;2023-03-03T05:08:43;22.30;43.10
42877;DHT22;42341;40.498;72.818;2023-03-03T05:11:10;22.20;42.80
42877;DHT22;42341;40.498;72.818;2023-03-03T05:13:36;23.00;42.50
42877;DHT22;42341;40.498;72.818;2023-03-03T05:16:03;23.20;41.70
42877;DHT22;42341;40.498;72.818;2023-03-03T05:18:30;23.30;41.50
42877;DHT22;42341;40.498;72.818;2023-03-03T05:20:56;23.10;41.10
42877;DHT22;42341;40.498;72.818;2023-03-03T05:23:22;24.30;41.20
42877;DHT22;42341;40.498;72.818;2023-03-03T05:25:49;24.80;40.40
42877;DHT22;42341;40.498;72.818;2023-03-03T05:28:16;25.40;39.30
42877;DHT22;42341;40.498;72.818;2023-03-03T05:30:43;25.10;38.50
42877;DHT22;42341;40.498;72.818;2023-03-03T05:33:12;25.10;39.20
42877;DHT22;42341;40.498;72.818;2023-03-03T05:35:39;25.50;38.70
42877;DHT22;42341;40.498;72.818;2023-03-03T05:38:05;25.80;38.20
42877;DHT22;42341;40.498;72.818;2023-03-03T05:40:31;25.40;38.60
42877;DHT22;42341;40.498;72.818;2023-03-03T05:42:57;25.30;39.20
42877;DHT22;42341;40.498;72.818;2023-03-03T05:45:23;26.20;38.40
42877;DHT22;42341;40.498;72.818;2023-03-03T05:47:50;26.80;36.70
42877;DHT22;42341;40.498;72.818;2023-03-03T05:50:21;27.30;36.60
42877;DHT22;42341;40.498;72.818;2023-03-03T05:52:47;28.20;36.50
42877;DHT22;42341;40.498;72.818;2023-03-03T05:55:14;29.00;35.60
42877;DHT22;42341;40.498;72.818;2023-03-03T05:57:40;30.20;36.00
42877;DHT22;42341;40.498;72.818;2023-03-03T06:00:06;31.10;35.70
42877;DHT22;42341;40.498;72.818;2023-03-03T06:02:33;31.70;34.60
42877;DHT22;42341;40.498;72.818;2023-03-03T06:05:00;32.30;34.30
42877;DHT22;42341;40.498;72.818;2023-03-03T06:07:26;32.40;34.50
42877;DHT22;42341;40.498;72.818;2023-03-03T06:09:52;33.10;34.90
42877;DHT22;42341;40.498;72.818;2023-03-03T06:12:36;34.30;34.40
42877;DHT22;42341;40.498;72.818;2023-03-03T06:15:22;34.40;32.60
42877;DHT22;42341;40.498;72.818;2023-03-03T06:18:06;34.10;32.60
42877;DHT22;42341;40.498;72.818;2023-03-03T06:20:32;34.60;32.90
42877;DHT22;42341;40.498;72.818;2023-03-03T06:23:00;34.60;32.40
42877;DHT22;42341;40.498;72.818;2023-03-03T06:25:26;34.80;32.40
42877;DHT22;42341;40.498;72.818;2023-03-03T06:27:53;35.50;32.60
42877;DHT22;42341;40.498;72.818;2023-03-03T06:30:19;35.70;35.20
42877;DHT22;42341;40.498;72.818;2023-03-03T06:32:45;35.40;36.40
42877;DHT22;42341;40.498;72.818;2023-03-03T06:35:11;35.00;36.90
42877;DHT22;42341;40.498;72.818;2023-03-03T06:37:37;34.00;37.20
42877;DHT22;42341;40.498;72.818;2023-03-03T06:40:04;33.80;37.40
42877;DHT22;42341;40.498;72.818;2023-03-03T06:42:30;33.30;37.20
42877;DHT22;42341;40.498;72.818;2023-03-03T06:44:56;33.80;37.90
42877;DHT22;42341;40.498;72.818;2023-03-03T06:47:22;34.00;37.70
42877;DHT22;42341;40.498;72.818;2023-03-03T06:49:48;34.80;37.00
42877;DHT22;42341;40.498;72.818;2023-03-03T06:52:19;35.70;37.20
42877;DHT22;42341;40.498;72.818;2023-03-03T06:54:46;35.80;37.00
42877;DHT22;42341;40.498;72.818;2023-03-03T06:59:52;36.70;36.60
42877;DHT22;42341;40.498;72.818;2023-03-03T07:02:19;37.30;35.80
42877;DHT22;42341;40.498;72.818;2023-03-03T07:04:46;37.20;36.00
42877;DHT22;42341;40.498;72.818;2023-03-03T07:07:18;36.80;35.30
42877;DHT22;42341;40.498;72.818;2023-03-03T07:09:47;36.80;35.70
42877;DHT22;42341;40.498;72.818;2023-03-03T07:12:19;35.80;35.60
42877;DHT22;42341;40.498;72.818;2023-03-03T07:14:52;35.40;35.40
42877;DHT22;42341;40.498;72.818;2023-03-03T07:17:23;34.90;35.10
42877;DHT22;42341;40.498;72.818;2023-03-03T07:19:50;34.50;35.40
42877;DHT22;42341;40.498;72.818;2023-03-03T07:22:19;34.40;35.30
42877;DHT22;42341;40.498;72.818;2023-03-03T07:24:53;34.60;35.40
42877;DHT22;42341;40.498;72.818;2023-03-03T07:27:28;33.80;35.30
42877;DHT22;42341;40.498;72.818;2023-03-03T07:32:55;33.50;36.60
42877;DHT22;42341;40.498;72.818;2023-03-03T07:37:57;33.40;37.10
42877;DHT22;42341;40.498;72.818;2023-03-03T07:42:58;30.80;37.50
42877;DHT22;42341;40.498;72.818;2023-03-03T07:45:34;29.00;38.60
42877;DHT22;42341;40.498;72.818;2023-03-03T07:48:43;27.20;40.40
42877;DHT22;42341;40.498;72.818;2023-03-03T07:50:50;26.30;41.00
42877;DHT22;42341;40.498;72.818;2023-03-03T07:53:28;25.10;41.60
42877;DHT22;42341;40.498;72.818;2023-03-03T07:55:54;24.50;42.90
42877;DHT22;42341;40.498;72.818;2023-03-03T07:58:38;23.90;43.70
42877;DHT22;42341;40.498;72.818;2023-03-03T08:01:31;23.80;44.70
42877;DHT22;42341;40.498;72.818;2023-03-03T08:04:00;23.40;44.30
42877;DHT22;42341;40.498;72.818;2023-03-03T08:08:56;22.80;44.80
42877;DHT22;42341;40.498;72.818;2023-03-03T08:11:25;22.50;45.10
42877;DHT22;42341;40.498;72.818;2023-03-03T08:13:52;22.20;45.40
42877;DHT22;42341;40.498;72.818;2023-03-03T08:16:24;22.10;46.00
42877;DHT22;42341;40.498;72.818;2023-03-03T08:18:53;22.00;46.10
42877;DHT22;42341;40.498;72.818;2023-03-03T08:21:23;21.50;46.60
42877;DHT22;42341;40.498;72.818;2023-03-03T08:23:50;21.60;46.80
42877;DHT22;42341;40.498;72.818;2023-03-03T08:26:22;21.30;46.50
42877;DHT22;42341;40.498;72.818;2023-03-03T08:28:48;21.50;46.90
42877;DHT22;42341;40.498;72.818;2023-03-03T08:31:15;21.50;46.60
42877;DHT22;42341;40.498;72.818;2023-03-03T08:33:42;21.50;45.70
42877;DHT22;42341;40.498;72.818;2023-03-03T08:36:09;21.40;46.40
42877;DHT22;42341;40.498;72.818;2023-03-03T08:38:35;21.40;46.70
42877;DHT22;42341;40.498;72.818;2023-03-03T08:41:03;21.30;47.40
42877;DHT22;42341;40.498;72.818;2023-03-03T08:43:29;21.30;46.60
42877;DHT22;42341;40.498;72.818;2023-03-03T08:45:58;21.10;46.90
42877;DHT22;42341;40.498;72.818;2023-03-03T08:48:25;21.10;47.10
42877;DHT22;42341;40.498;72.818;2023-03-03T08:50:52;21.10;47.30
42877;DHT22;42341;40.498;72.818;2023-03-03T08:53:19;21.10;47.30
42877;DHT22;42341;40.498;72.818;2023-03-03T08:55:45;21.00;47.10
42877;DHT22;42341;40.498;72.818;2023-03-03T08:58:13;21.10;46.70
42877;DHT22;42341;40.498;72.818;2023-03-03T09:00:39;21.20;46.30
42877;DHT22;42341;40.498;72.818;2023-03-03T09:03:06;21.10;46.60
42877;DHT22;42341;40.498;72.818;2023-03-03T09:05:33;21.00;46.90
42877;DHT22;42341;40.498;72.818;2023-03-03T09:08:00;20.90;46.80
42877;DHT22;42341;40.498;72.818;2023-03-03T09:10:27;20.90;46.80
42877;DHT22;42341;40.498;72.818;2023-03-03T09:12:59;20.80;47.30
42877;DHT22;42341;40.498;72.818;2023-03-03T09:15:27;20.70;47.10
42877;DHT22;42341;40.498;72.818;2023-03-03T09:20:45;20.50;46.70
42877;DHT22;42341;40.498;72.818;2023-03-03T09:23:30;20.40;46.80
42877;DHT22;42341;40.498;72.818;2023-03-03T09:26:21;20.30;46.50
42877;DHT22;42341;40.498;72.818;2023-03-03T09:28:47;20.20;47.10
42877;DHT22;42341;40.498;72.818;2023-03-03T09:31:37;20.20;46.90
42877;DHT22;42341;40.498;72.818;2023-03-03T09:36:49;19.90;46.20
42877;DHT22;42341;40.498;72.818;2023-03-03T09:39:17;19.80;45.80
42877;DHT22;42341;40.498;72.818;2023-03-03T09:55:39;18.90;49.90
42877;DHT22;42341;40.498;72.818;2023-03-03T09:58:17;18.80;49.90
42877;DHT22;42341;40.498;72.818;2023-03-03T10:03:46;18.80;50.60
42877;DHT22;42341;40.498;72.818;2023-03-03T10:09:54;18.60;52.00
42877;DHT22;42341;40.498;72.818;2023-03-03T10:18:02;18.70;51.60
42877;DHT22;42341;40.498;72.818;2023-03-03T10:26:03;18.70;52.10
42877;DHT22;42341;40.498;72.818;2023-03-03T10:31:30;18.90;52.10
42877;DHT22;42341;40.498;72.818;2023-03-03T10:42:16;18.70;50.00
42877;DHT22;42341;40.498;72.818;2023-03-03T10:44:56;18.60;50.00
42877;DHT22;42341;40.498;72.818;2023-03-03T10:47:26;18.60;51.00
42877;DHT22;42341;40.498;72.818;2023-03-03T11:11:58;18.70;48.60
42877;DHT22;42341;40.498;72.818;2023-03-03T11:14:30;18.70;48.70
42877;DHT22;42341;40.498;72.818;2023-03-03T11:19:39;18.70;48.40
42877;DHT22;42341;40.498;72.818;2023-03-03T11:25:25;18.60;48.60
42877;DHT22;42341;40.498;72.818;2023-03-03T11:28:07;18.50;48.80
42877;DHT22;42341;40.498;72.818;2023-03-03T11:33:46;18.50;49.20
42877;DHT22;42341;40.498;72.818;2023-03-03T11:38:57;18.60;48.30
42877;DHT22;42341;40.498;72.818;2023-03-03T11:41:57;18.50;48.30
42877;DHT22;42341;40.498;72.818;2023-03-03T11:49:52;18.40;48.50
42877;DHT22;42341;40.498;72.818;2023-03-03T11:52:46;18.20;50.10
42877;DHT22;42341;40.498;72.818;2023-03-03T11:55:19;18.20;50.50
42877;DHT22;42341;40.498;72.818;2023-03-03T12:11:27;17.70;53.10
42877;DHT22;42341;40.498;72.818;2023-03-03T12:17:03;17.80;53.30
42877;DHT22;42341;40.498;72.818;2023-03-03T12:19:46;17.70;54.20
42877;DHT22;42341;40.498;72.818;2023-03-03T12:22:29;17.40;54.40
42877;DHT22;42341;40.498;72.818;2023-03-03T12:28:02;17.40;55.10
42877;DHT22;42341;40.498;72.818;2023-03-03T12:38:48;17.40;55.20
42877;DHT22;42341;40.498;72.818;2023-03-03T12:44:25;17.30;56.80
42877;DHT22;42341;40.498;72.818;2023-03-03T12:49:58;17.10;57.50
42877;DHT22;42341;40.498;72.818;2023-03-03T12:53:02;17.10;57.30
42877;DHT22;42341;40.498;72.818;2023-03-03T12:55:52;16.80;57.90
42877;DHT22;42341;40.498;72.818;2023-03-03T12:58:42;16.80;55.40
42877;DHT22;42341;40.498;72.818;2023-03-03T13:07:05;16.50;58.20
42877;DHT22;42341;40.498;72.818;2023-03-03T13:15:21;16.20;59.40
42877;DHT22;42341;40.498;72.818;2023-03-03T13:17:54;16.20;59.30
42877;DHT22;42341;40.498;72.818;2023-03-03T13:20:48;16.10;60.50
42877;DHT22;42341;40.498;72.818;2023-03-03T13:23:28;16.10;60.20
42877;DHT22;42341;40.498;72.818;2023-03-03T13:31:50;15.80;60.80
42877;DHT22;42341;40.498;72.818;2023-03-03T13:34:32;15.80;61.60
42877;DHT22;42341;40.498;72.818;2023-03-03T13:39:54;15.50;62.50
42877;DHT22;42341;40.498;72.818;2023-03-03T13:44:51;15.40;61.80
42877;DHT22;42341;40.498;72.818;2023-03-03T13:47:41;15.40;62.10
42877;DHT22;42341;40.498;72.818;2023-03-03T13:53:31;15.40;62.20
42877;DHT22;42341;40.498;72.818;2023-03-03T14:04:29;15.00;63.90
42877;DHT22;42341;40.498;72.818;2023-03-03T14:07:17;15.00;63.10
42877;DHT22;42341;40.498;72.818;2023-03-03T14:10:13;15.10;64.20
42877;DHT22;42341;40.498;72.818;2023-03-03T14:13:24;14.90;62.20
42877;DHT22;42341;40.498;72.818;2023-03-03T14:16:04;14.80;63.00
42877;DHT22;42341;40.498;72.818;2023-03-03T14:18:56;14.80;63.30
42877;DHT22;42341;40.498;72.818;2023-03-03T14:21:26;14.60;64.00
42877;DHT22;42341;40.498;72.818;2023-03-03T14:23:53;14.60;64.30
42877;DHT22;42341;40.498;72.818;2023-03-03T14:26:22;14.60;64.30
42877;DHT22;42341;40.498;72.818;2023-03-03T14:28:49;14.50;64.70
42877;DHT22;42341;40.498;72.818;2023-03-03T14:31:21;14.50;65.50
42877;DHT22;42341;40.498;72.818;2023-03-03T14:36:38;14.40;66.40
42877;DHT22;42341;40.498;72.818;2023-03-03T14:39:31;14.30;66.50
42877;DHT22;42341;40.498;72.818;2023-03-03T14:41:57;14.30;66.80
42877;DHT22;42341;40.498;72.818;2023-03-03T14:44:35;14.20;67.40
42877;DHT22;42341;40.498;72.818;2023-03-03T14:47:04;14.20;67.00
42877;DHT22;42341;40.498;72.818;2023-03-03T14:49:37;14.10;66.00
42877;DHT22;42341;40.498;72.818;2023-03-03T14:54:44;14.30;65.50
42877;DHT22;42341;40.498;72.818;2023-03-03T14:57:19;14.20;65.00
42877;DHT22;42341;40.498;72.818;2023-03-03T14:59:57;14.30;65.20
42877;DHT22;42341;40.498;72.818;2023-03-03T15:02:34;14.30;64.90
42877;DHT22;42341;40.498;72.818;2023-03-03T15:05:22;14.30;65.30
42877;DHT22;42341;40.498;72.818;2023-03-03T15:07:57;14.30;65.30
42877;DHT22;42341;40.498;72.818;2023-03-03T15:10:43;14.10;66.20
42877;DHT22;42341;40.498;72.818;2023-03-03T15:18:26;13.70;66.30
42877;DHT22;42341;40.498;72.818;2023-03-03T15:21:01;13.60;65.80
42877;DHT22;42341;40.498;72.818;2023-03-03T15:26:39;13.60;65.90
42877;DHT22;42341;40.498;72.818;2023-03-03T15:37:22;13.40;67.90
42877;DHT22;42341;40.498;72.818;2023-03-03T15:40:31;13.50;68.00
42877;DHT22;42341;40.498;72.818;2023-03-03T15:43:12;13.20;68.00
42877;DHT22;42341;40.498;72.818;2023-03-03T15:51:38;13.60;68.70
42877;DHT22;42341;40.498;72.818;2023-03-03T15:57:00;13.20;69.90
42877;DHT22;42341;40.498;72.818;2023-03-03T15:59:44;13.30;69.80
42877;DHT22;42341;40.498;72.818;2023-03-03T16:05:14;13.40;68.60
42877;DHT22;42341;40.498;72.818;2023-03-03T16:08:29;13.20;68.00
42877;DHT22;42341;40.498;72.818;2023-03-03T16:14:09;13.00;67.00
42877;DHT22;42341;40.498;72.818;2023-03-03T16:30:33;13.10;68.60
42877;DHT22;42341;40.498;72.818;2023-03-03T16:38:36;13.20;67.80
42877;DHT22;42341;40.498;72.818;2023-03-03T16:41:08;13.20;67.70
42877;DHT22;42341;40.498;72.818;2023-03-03T16:54:33;13.00;68.10
42877;DHT22;42341;40.498;72.818;2023-03-03T17:00:17;12.90;68.00
42877;DHT22;42341;40.498;72.818;2023-03-03T17:05:46;12.80;69.40
42877;DHT22;42341;40.498;72.818;2023-03-03T17:17:16;12.40;70.20
42877;DHT22;42341;40.498;72.818;2023-03-03T17:20:02;12.40;71.00
42877;DHT22;42341;40.498;72.818;2023-03-03T17:35:46;12.50;69.20
42877;DHT22;42341;40.498;72.818;2023-03-03T17:38:17;12.50;69.60
42877;DHT22;42341;40.498;72.818;2023-03-03T17:45:55;12.40;69.30
42877;DHT22;42341;40.498;72.818;2023-03-03T18:08:01;12.20;71.10
42877;DHT22;42341;40.498;72.818;2023-03-03T18:10:50;12.30;71.60
42877;DHT22;42341;40.498;72.818;2023-03-03T18:13:49;12.20;71.30
42877;DHT22;42341;40.498;72.818;2023-03-03T18:19:43;11.90;70.50
42877;DHT22;42341;40.498;72.818;2023-03-03T18:22:32;11.90;70.80
42877;DHT22;42341;40.498;72.818;2023-03-03T18:25:08;11.90;71.00
42877;DHT22;42341;40.498;72.818;2023-03-03T18:27:41;12.00;70.50
42877;DHT22;42341;40.498;72.818;2023-03-03T18:35:29;11.90;70.00
42877;DHT22;42341;40.498;72.818;2023-03-03T18:38:21;11.90;69.80
42877;DHT22;42341;40.498;72.818;2023-03-03T18:41:10;11.90;69.20
42877;DHT22;42341;40.498;72.818;2023-03-03T18:49:05;11.90;68.50
42877;DHT22;42341;40.498;72.818;2023-03-03T18:56:48;11.90;68.60
42877;DHT22;42341;40.498;72.818;2023-03-03T19:04:48;11.70;68.70
42877;DHT22;42341;40.498;72.818;2023-03-03T19:08:21;11.60;68.70
42877;DHT22;42341;40.498;72.818;2023-03-03T19:12:57;11.50;68.60
42877;DHT22;42341;40.498;72.818;2023-03-03T19:15:51;11.30;68.60
42877;DHT22;42341;40.498;72.818;2023-03-03T19:18:21;11.30;68.90
42877;DHT22;42341;40.498;72.818;2023-03-03T19:20:56;11.20;68.90
42877;DHT22;42341;40.498;72.818;2023-03-03T19:26:30;11.10;68.20
42877;DHT22;42341;40.498;72.818;2023-03-03T19:32:17;11.10;68.40
42877;DHT22;42341;40.498;72.818;2023-03-03T19:46:18;10.90;69.30
42877;DHT22;42341;40.498;72.818;2023-03-03T19:54:13;10.70;69.50
42877;DHT22;42341;40.498;72.818;2023-03-03T20:09:53;10.60;68.90
42877;DHT22;42341;40.498;72.818;2023-03-03T20:15:19;10.70;69.00
42877;DHT22;42341;40.498;72.818;2023-03-03T20:40:35;10.40;68.80
42877;DHT22;42341;40.498;72.818;2023-03-03T21:06:49;9.70;69.50
42877;DHT22;42341;40.498;72.818;2023-03-03T21:09:26;10.20;68.20
42877;DHT22;42341;40.498;72.818;2023-03-03T21:11:53;10.20;68.60
42877;DHT22;42341;40.498;72.818;2023-03-03T21:14:22;10.10;68.00
42877;DHT22;42341;40.498;72.818;2023-03-03T21:16:51;10.20;68.40
42877;DHT22;42341;40.498;72.818;2023-03-03T21:19:31;10.10;68.40
42877;DHT22;42341;40.498;72.818;2023-03-03T21:21:59;10.20;68.20
42877;DHT22;42341;40.498;72.818;2023-03-03T21:24:53;10.20;68.00
42877;DHT22;42341;40.498;72.818;2023-03-03T21:27:32;10.30;67.90
42877;DHT22;42341;40.498;72.818;2023-03-03T21:32:45;10.30;67.70
42877;DHT22;42341;40.498;72.818;2023-03-03T21:35:17;10.30;67.30
42877;DHT22;42341;40.498;72.818;2023-03-03T21:40:18;10.20;67.60
42877;DHT22;42341;40.498;72.818;2023-03-03T21:42:45;10.00;67.50
42877;DHT22;42341;40.498;72.818;2023-03-03T21:45:13;10.00;68.30
42877;DHT22;42341;40.498;72.818;2023-03-03T21:47:41;10.10;67.80
42877;DHT22;42341;40.498;72.818;2023-03-03T21:50:08;10.00;67.60
42877;DHT22;42341;40.498;72.818;2023-03-03T21:52:35;10.10;67.60
42877;DHT22;42341;40.498;72.818;2023-03-03T21:55:01;10.20;67.70
42877;DHT22;42341;40.498;72.818;2023-03-03T21:57:27;10.10;67.60
42877;DHT22;42341;40.498;72.818;2023-03-03T21:59:53;10.30;67.60
42877;DHT22;42341;40.498;72.818;2023-03-03T22:02:19;10.30;67.50
42877;DHT22;42341;40.498;72.818;2023-03-03T22:04:45;10.30;67.20
42877;DHT22;42341;40.498;72.818;2023-03-03T22:07:11;10.30;67.50
42877;DHT22;42341;40.498;72.818;2023-03-03T22:09:37;10.30;67.60
42877;DHT22;42341;40.498;72.818;2023-03-03T22:12:05;10.10;67.40
42877;DHT22;42341;40.498;72.818;2023-03-03T22:14:31;10.10;67.60
42877;DHT22;42341;40.498;72.818;2023-03-03T22:16:57;9.90;67.70
42877;DHT22;42341;40.498;72.818;2023-03-03T22:19:24;9.90;68.30
42877;DHT22;42341;40.498;72.818;2023-03-03T22:21:50;9.80;67.80
42877;DHT22;42341;40.498;72.818;2023-03-03T22:24:16;9.80;67.80
42877;DHT22;42341;40.498;72.818;2023-03-03T22:26:42;9.70;67.90
42877;DHT22;42341;40.498;72.818;2023-03-03T22:29:08;9.60;67.80
42877;DHT22;42341;40.498;72.818;2023-03-03T22:31:35;9.70;68.60
42877;DHT22;42341;40.498;72.818;2023-03-03T22:34:01;9.70;68.00
42877;DHT22;42341;40.498;72.818;2023-03-03T22:36:28;9.70;68.10
42877;DHT22;42341;40.498;72.818;2023-03-03T22:38:53;9.60;67.90
42877;DHT22;42341;40.498;72.818;2023-03-03T22:41:20;9.70;67.80
42877;DHT22;42341;40.498;72.818;2023-03-03T22:43:45;9.50;68.00
42877;DHT22;42341;40.498;72.818;2023-03-03T22:46:13;9.50;68.30
42877;DHT22;42341;40.498;72.818;2023-03-03T22:48:39;9.50;67.90
42877;DHT22;42341;40.498;72.818;2023-03-03T22:51:05;9.50;68.20
42877;DHT22;42341;40.498;72.818;2023-03-03T22:53:31;9.50;68.30
42877;DHT22;42341;40.498;72.818;2023-03-03T22:55:57;9.50;68.20
42877;DHT22;42341;40.498;72.818;2023-03-03T22:58:23;9.30;68.10
42877;DHT22;42341;40.498;72.818;2023-03-03T23:00:52;9.20;68.40
42877;DHT22;42341;40.498;72.818;2023-03-03T23:03:19;9.10;68.70
42877;DHT22;42341;40.498;72.818;2023-03-03T23:05:47;9.10;68.70
42877;DHT22;42341;40.498;72.818;2023-03-03T23:08:14;9.10;68.90
42877;DHT22;42341;40.498;72.818;2023-03-03T23:10:41;8.90;69.00
42877;DHT22;42341;40.498;72.818;2023-03-03T23:13:07;8.90;69.30
42877;DHT22;42341;40.498;72.818;2023-03-03T23:15:34;8.90;69.50
42877;DHT22;42341;40.498;72.818;2023-03-03T23:18:00;8.80;69.70
42877;DHT22;42341;40.498;72.818;2023-03-03T23:20:28;8.70;69.80
42877;DHT22;42341;40.498;72.818;2023-03-03T23:22:55;8.80;69.70